createdAt,value
2018-12-02T00:00:26.853Z,4.90
2018-12-02T00:02:55.193Z,5.40
2018-12-02T00:05:23.873Z,4.93
2018-12-02T00:07:52.049Z,5.07
2018-12-02T00:10:20.940Z,5.53
2018-12-02T00:12:49.220Z,5.07
2018-12-02T00:15:20.384Z,5.40
2018-12-02T00:17:49.132Z,6.37
2018-12-02T00:20:17.284Z,6.00
2018-12-02T00:22:45.428Z,5.70
2018-12-02T00:25:14.593Z,5.60
2018-12-02T00:27:45.012Z,5.50
2018-12-02T00:30:17.103Z,4.80
2018-12-02T00:32:45.312Z,5.13
2018-12-02T00:35:14.456Z,4.43
2018-12-02T00:37:43.453Z,4.43
2018-12-02T00:40:12.678Z,4.23
2018-12-02T00:42:41.303Z,4.40
2018-12-02T00:45:13.016Z,13.67
2018-12-02T00:47:41.186Z,6.93
2018-12-02T00:50:12.181Z,5.23
2018-12-02T00:52:40.681Z,5.90
2018-12-02T00:55:12.265Z,5.03
2018-12-02T00:57:40.420Z,3.53
2018-12-02T01:00:12.206Z,3.60
2018-12-02T01:02:40.452Z,3.40
2018-12-02T01:05:10.288Z,3.50
2018-12-02T01:07:38.561Z,3.23
2018-12-02T01:10:25.516Z,3.10
2018-12-02T01:12:54.770Z,3.30
2018-12-02T01:15:25.069Z,3.90
2018-12-02T01:17:53.210Z,3.43
2018-12-02T01:20:22.047Z,3.40
2018-12-02T01:22:50.193Z,3.60
2018-12-02T01:25:18.344Z,3.40
2018-12-02T01:27:46.989Z,3.90
2018-12-02T01:30:22.140Z,3.90
2018-12-02T01:32:51.212Z,4.23
2018-12-02T01:35:19.507Z,3.77
2018-12-02T01:37:47.649Z,3.93
2018-12-02T01:40:16.880Z,4.17
2018-12-02T01:42:45.161Z,3.70
2018-12-02T01:45:15.506Z,3.80
2018-12-02T01:47:43.740Z,3.93
2018-12-02T01:50:13.756Z,4.03
2018-12-02T01:52:42.369Z,4.37
2018-12-02T01:55:10.537Z,3.90
2018-12-02T01:57:38.817Z,3.60
2018-12-02T02:00:12.720Z,3.90
2018-12-02T02:02:40.892Z,4.03
2018-12-02T02:05:09.073Z,3.83
2018-12-02T02:07:37.545Z,4.20
2018-12-02T02:10:12.262Z,4.40
2018-12-02T02:12:40.452Z,4.30
2018-12-02T02:15:10.140Z,4.30
2018-12-02T02:17:38.341Z,4.63
2018-12-02T02:20:08.835Z,4.10
2018-12-02T02:22:37.040Z,3.70
2018-12-02T02:25:06.517Z,4.10
2018-12-02T02:27:34.724Z,4.13
2018-12-02T02:30:02.894Z,4.07
2018-12-02T02:32:31.080Z,4.20
2018-12-02T02:34:59.232Z,3.90
2018-12-02T02:37:27.424Z,4.20
2018-12-02T02:39:55.588Z,4.13
2018-12-02T02:42:23.776Z,3.53
2018-12-02T02:44:51.921Z,3.80
2018-12-02T02:47:20.086Z,3.63
2018-12-02T02:49:48.394Z,3.80
2018-12-02T02:52:16.573Z,3.70
2018-12-02T02:54:44.753Z,3.33
2018-12-02T02:57:12.900Z,3.70
2018-12-02T02:59:41.113Z,3.73
2018-12-02T03:02:09.269Z,3.60
2018-12-02T03:04:37.442Z,3.70
2018-12-02T03:07:05.612Z,3.43
2018-12-02T03:09:33.745Z,3.23
2018-12-02T03:12:02.075Z,3.57
2018-12-02T03:14:30.212Z,3.70
2018-12-02T03:16:58.569Z,3.20
2018-12-02T03:19:26.786Z,3.30
2018-12-02T03:21:54.976Z,2.80
2018-12-02T03:24:23.135Z,3.47
2018-12-02T03:26:51.276Z,3.50
2018-12-02T03:29:19.513Z,3.43
2018-12-02T03:31:47.670Z,3.40
2018-12-02T03:34:15.849Z,3.37
2018-12-02T03:36:44.077Z,3.33
2018-12-02T03:39:12.204Z,3.20
2018-12-02T03:41:40.384Z,2.93
2018-12-02T03:44:08.556Z,3.43
2018-12-02T03:46:36.749Z,3.30
2018-12-02T03:49:05.501Z,2.50
2018-12-02T03:51:33.580Z,3.10
2018-12-02T03:54:01.733Z,2.47
2018-12-02T03:56:29.926Z,2.90
2018-12-02T03:58:58.112Z,2.60
2018-12-02T04:01:26.281Z,4.53
2018-12-02T04:03:54.460Z,4.17
2018-12-02T04:06:22.625Z,2.47
2018-12-02T04:08:50.785Z,2.93
2018-12-02T04:11:19.072Z,2.70
2018-12-02T04:13:47.286Z,3.20
2018-12-02T04:16:15.431Z,2.80
2018-12-02T04:18:43.578Z,2.97
2018-12-02T04:21:11.791Z,2.87
2018-12-02T04:23:39.952Z,2.73
2018-12-02T04:26:08.138Z,2.77
2018-12-02T04:28:36.300Z,2.53
2018-12-02T04:31:04.605Z,2.77
2018-12-02T04:33:32.767Z,2.60
2018-12-02T04:36:00.944Z,3.03
2018-12-02T04:38:29.080Z,2.73
2018-12-02T04:40:57.293Z,2.87
2018-12-02T04:43:25.453Z,3.27
2018-12-02T04:45:53.645Z,3.03
2018-12-02T04:48:21.784Z,2.87
2018-12-02T04:50:49.988Z,3.10
2018-12-02T04:53:18.153Z,3.17
2018-12-02T04:55:46.341Z,2.90
2018-12-02T04:58:14.505Z,3.30
2018-12-02T05:00:42.662Z,3.30
2018-12-02T05:03:10.866Z,3.37
2018-12-02T05:05:39.064Z,3.20
2018-12-02T05:08:07.216Z,3.80
2018-12-02T05:10:35.384Z,3.90
2018-12-02T05:13:03.550Z,3.90
2018-12-02T05:15:31.693Z,3.40
2018-12-02T05:17:59.904Z,3.47
2018-12-02T05:20:28.064Z,3.80
2018-12-02T05:22:56.208Z,3.80
2018-12-02T05:25:24.441Z,3.33
2018-12-02T05:27:52.605Z,4.27
2018-12-02T05:30:22.775Z,4.00
2018-12-02T05:32:51.844Z,4.20
2018-12-02T05:35:20.113Z,3.93
2018-12-02T05:37:48.301Z,4.27
2018-12-02T05:40:21.300Z,9.77
2018-12-02T05:42:49.462Z,7.20
2018-12-02T05:45:18.253Z,5.23
2018-12-02T05:47:46.532Z,4.60
2018-12-02T05:50:19.664Z,6.40
2018-12-02T05:52:50.100Z,5.70
2018-12-02T05:55:19.705Z,5.10
2018-12-02T05:57:48.024Z,5.70
2018-12-02T06:00:23.112Z,5.20
2018-12-02T06:02:51.343Z,5.23
2018-12-02T06:05:19.485Z,5.20
2018-12-02T06:07:47.635Z,5.03
2018-12-02T06:10:18.487Z,5.37
2018-12-02T06:12:46.704Z,5.17
2018-12-02T06:15:18.681Z,5.13
2018-12-02T06:17:47.036Z,5.67
2018-12-02T06:20:18.884Z,5.17
2018-12-02T06:22:47.457Z,4.67
2018-12-02T06:25:15.607Z,3.23
2018-12-02T06:27:44.076Z,2.30
2018-12-02T06:30:27.362Z,1.47
2018-12-02T06:32:57.457Z,1.70
2018-12-02T06:35:25.650Z,1.30
2018-12-02T06:37:54.982Z,1.20
2018-12-02T06:40:24.057Z,1.57
2018-12-02T06:42:52.437Z,1.90
2018-12-02T06:45:20.928Z,1.37
2018-12-02T06:47:49.117Z,1.63
2018-12-02T06:50:21.873Z,1.20
2018-12-02T06:52:50.052Z,1.60
2018-12-02T06:55:20.853Z,1.20
2018-12-02T06:57:52.240Z,1.60
2018-12-02T07:00:27.470Z,2.17
2018-12-02T07:03:00.754Z,1.43
2018-12-02T07:05:32.193Z,1.07
2018-12-02T07:08:00.340Z,1.07
2018-12-02T07:10:28.481Z,1.03
2018-12-02T07:12:56.757Z,1.00
2018-12-02T07:15:24.933Z,1.00
2018-12-02T07:17:53.103Z,0.87
2018-12-02T07:20:21.369Z,0.90
2018-12-02T07:22:49.737Z,0.93
2018-12-02T07:25:18.030Z,0.93
2018-12-02T07:27:46.215Z,1.00
2018-12-02T07:30:14.379Z,0.77
2018-12-02T07:32:42.663Z,0.70
2018-12-02T07:35:12.441Z,0.77
2018-12-02T07:37:42.129Z,0.60
2018-12-02T07:40:18.156Z,0.90
2018-12-02T07:42:46.320Z,1.00
2018-12-02T07:45:14.483Z,0.70
2018-12-02T07:47:42.689Z,0.77
2018-12-02T07:50:10.877Z,0.50
2018-12-02T07:52:39.009Z,0.70
2018-12-02T07:55:08.605Z,0.50
2018-12-02T07:57:36.832Z,0.50
2018-12-02T08:00:09.413Z,0.50
2018-12-02T08:02:37.548Z,0.43
2018-12-02T08:05:06.249Z,0.40
2018-12-02T08:07:34.436Z,0.40
2018-12-02T08:10:02.702Z,0.40
2018-12-02T08:12:30.837Z,0.33
2018-12-02T08:14:59.036Z,0.43
2018-12-02T08:17:27.457Z,0.40
2018-12-02T08:19:55.615Z,0.40
2018-12-02T08:22:23.762Z,0.40
2018-12-02T08:24:52.049Z,0.33
2018-12-02T08:27:20.244Z,9.17
2018-12-02T08:29:48.400Z,3.43
2018-12-02T08:32:16.569Z,3.17
2018-12-02T08:34:44.726Z,1.10
2018-12-02T08:37:13.019Z,2.00
2018-12-02T08:39:41.165Z,0.50
2018-12-02T08:42:12.137Z,0.57
2018-12-02T08:44:40.416Z,0.40
2018-12-02T08:47:08.566Z,0.40
2018-12-02T08:49:36.716Z,0.80
2018-12-02T08:52:04.949Z,1.40
2018-12-02T08:54:33.129Z,0.57
2018-12-02T08:57:01.282Z,0.30
2018-12-02T08:59:29.468Z,0.30
2018-12-02T09:01:57.645Z,0.30
2018-12-02T09:04:25.837Z,0.37
2018-12-02T09:06:53.981Z,0.40
2018-12-02T09:09:22.122Z,0.20
2018-12-02T09:11:50.338Z,0.60
2018-12-02T09:14:18.501Z,0.50
2018-12-02T09:16:46.652Z,0.90
2018-12-02T09:19:14.852Z,0.60
2018-12-02T09:21:43.061Z,0.40
2018-12-02T09:24:11.206Z,0.93
2018-12-02T09:26:39.396Z,0.30
2018-12-02T09:29:07.562Z,0.80
2018-12-02T09:31:35.737Z,2.03
2018-12-02T09:34:04.029Z,4.23
2018-12-02T09:36:32.201Z,10.60
2018-12-02T09:39:00.363Z,11.57
2018-12-02T09:41:32.185Z,1.30
2018-12-02T09:44:00.400Z,4.90
2018-12-02T09:46:28.572Z,4.03
2018-12-02T09:48:57.166Z,1.57
2018-12-02T09:51:25.340Z,1.10
2018-12-02T09:53:53.628Z,1.00
2018-12-02T09:56:29.983Z,0.67
2018-12-02T09:59:01.550Z,3.57
2018-12-02T10:01:35.750Z,3.50
2018-12-02T10:04:09.655Z,2.33
2018-12-02T10:06:37.980Z,1.20
2018-12-02T10:10:14.112Z,2.10
2018-12-02T10:12:43.527Z,0.70
2018-12-02T10:15:13.299Z,0.50
2018-12-02T10:17:43.132Z,0.50
2018-12-02T10:20:13.425Z,2.00
2018-12-02T10:22:41.953Z,0.90
2018-12-02T10:25:19.635Z,1.77
2018-12-02T10:27:48.428Z,1.53
2018-12-02T10:30:17.807Z,2.37
2018-12-02T10:32:46.024Z,0.60
2018-12-02T10:35:14.230Z,0.57
2018-12-02T10:37:42.418Z,0.50
2018-12-02T10:40:12.901Z,0.60
2018-12-02T10:42:41.149Z,0.90
2018-12-02T10:45:11.864Z,1.50
2018-12-02T10:47:40.297Z,1.27
2018-12-02T10:50:17.917Z,0.50
2018-12-02T10:52:46.153Z,0.40
2018-12-02T10:55:48.021Z,0.47
2018-12-02T10:58:17.770Z,0.30
2018-12-02T11:00:51.396Z,0.90
2018-12-02T11:03:19.608Z,0.50
2018-12-02T11:05:47.782Z,0.30
2018-12-02T11:08:15.957Z,0.40
2018-12-02T11:10:44.093Z,0.43
2018-12-02T11:13:12.408Z,0.30
2018-12-02T11:15:40.901Z,0.40
2018-12-02T11:18:10.682Z,0.30
2018-12-02T11:20:38.836Z,1.67
2018-12-02T11:23:07.784Z,1.63
2018-12-02T11:25:36.572Z,0.70
2018-12-02T11:28:05.001Z,0.53
2018-12-02T11:30:33.212Z,1.00
2018-12-02T11:33:01.497Z,3.07
2018-12-02T11:35:29.624Z,0.40
2018-12-02T11:37:57.769Z,0.40
2018-12-02T11:40:25.920Z,0.40
2018-12-02T11:42:54.408Z,0.10
2018-12-02T11:45:22.665Z,0.50
2018-12-02T11:47:51.872Z,0.40
2018-12-02T11:50:20.897Z,0.23
2018-12-02T11:52:49.181Z,3.13
2018-12-02T11:55:18.218Z,1.20
2018-12-02T11:57:46.362Z,0.40
2018-12-02T12:00:21.585Z,0.20
2018-12-02T12:02:49.849Z,0.93
2018-12-02T12:05:18.076Z,0.60
2018-12-02T12:07:47.073Z,0.70
2018-12-02T12:10:16.215Z,1.13
2018-12-02T12:12:44.753Z,0.90
2018-12-02T12:15:15.125Z,0.50
2018-12-02T12:17:43.632Z,1.20
2018-12-02T12:20:21.092Z,3.30
2018-12-02T12:22:49.269Z,1.10
2018-12-02T12:25:17.484Z,0.80
2018-12-02T12:27:45.709Z,0.80
2018-12-02T12:30:18.089Z,0.90
2018-12-02T12:32:46.252Z,0.50
2018-12-02T12:35:15.564Z,0.60
2018-12-02T12:37:43.703Z,1.10
2018-12-02T12:40:14.040Z,0.90
2018-12-02T12:42:43.445Z,0.90
2018-12-02T12:45:12.926Z,0.90
2018-12-02T12:47:41.906Z,1.30
2018-12-02T12:50:11.450Z,0.70
2018-12-02T12:52:39.748Z,0.70
2018-12-02T12:55:11.228Z,1.30
2018-12-02T12:57:39.389Z,1.10
2018-12-02T13:00:13.615Z,0.57
2018-12-02T13:02:41.769Z,0.50
2018-12-02T13:05:12.208Z,0.40
2018-12-02T13:07:40.484Z,0.60
2018-12-02T13:10:10.980Z,0.47
2018-12-02T13:12:39.221Z,1.40
2018-12-02T13:15:09.988Z,1.10
2018-12-02T13:17:38.189Z,1.30
2018-12-02T13:20:10.743Z,1.27
2018-12-02T13:22:41.474Z,1.20
2018-12-02T13:25:11.126Z,1.83
2018-12-02T13:27:39.693Z,1.00
2018-12-02T13:30:12.351Z,1.87
2018-12-02T13:32:40.560Z,2.90
2018-12-02T13:35:09.458Z,0.60
2018-12-02T13:37:37.641Z,0.40
2018-12-02T13:40:11.108Z,0.70
2018-12-02T13:42:39.289Z,0.60
2018-12-02T13:45:11.949Z,0.70
2018-12-02T13:47:41.099Z,0.80
2018-12-02T13:50:11.889Z,4.00
2018-12-02T13:52:40.083Z,5.47
2018-12-02T13:55:10.937Z,7.30
2018-12-02T13:57:39.301Z,4.00
2018-12-02T14:00:18.212Z,1.77
2018-12-02T14:02:47.727Z,1.90
2018-12-02T14:05:15.909Z,3.30
2018-12-02T14:07:44.137Z,1.90
2018-12-02T14:10:14.520Z,3.23
2018-12-02T14:12:53.929Z,3.87
2018-12-02T14:16:00.273Z,0.70
2018-12-02T14:18:37.492Z,0.50
2018-12-02T14:21:06.264Z,0.40
2018-12-02T14:23:34.741Z,0.40
2018-12-02T14:26:06.565Z,0.40
2018-12-02T14:28:40.604Z,0.40
2018-12-02T14:31:08.820Z,0.53
2018-12-02T14:33:36.992Z,0.60
2018-12-02T14:36:05.285Z,0.30
2018-12-02T14:38:33.561Z,0.60
2018-12-02T14:41:01.748Z,0.50
2018-12-02T14:43:29.893Z,0.43
2018-12-02T14:45:58.117Z,0.50
2018-12-02T14:48:26.245Z,0.60
2018-12-02T14:50:54.377Z,0.43
2018-12-02T14:53:22.525Z,0.43
2018-12-02T14:55:50.902Z,0.40
2018-12-02T14:58:19.077Z,0.40
2018-12-02T15:00:47.328Z,0.50
2018-12-02T15:03:15.537Z,0.50
2018-12-02T15:05:43.797Z,0.53
2018-12-02T15:08:11.960Z,0.40
2018-12-02T15:10:40.092Z,0.53
2018-12-02T15:13:08.413Z,0.50
2018-12-02T15:15:36.701Z,0.50
2018-12-02T15:18:04.897Z,0.60
2018-12-02T15:20:33.133Z,0.80
2018-12-02T15:23:01.343Z,0.70
2018-12-02T15:25:29.748Z,0.70
2018-12-02T15:27:57.997Z,0.63
2018-12-02T15:30:26.820Z,0.60
2018-12-02T15:32:55.008Z,0.50
2018-12-02T15:35:23.166Z,0.57
2018-12-02T15:37:51.408Z,0.90
2018-12-02T15:40:19.577Z,3.13
2018-12-02T15:42:51.816Z,0.80
2018-12-02T15:45:20.908Z,0.57
2018-12-02T15:47:49.128Z,0.40
2018-12-02T15:50:22.469Z,0.40
2018-12-02T15:52:51.361Z,0.50
2018-12-02T15:55:23.253Z,0.50
2018-12-02T15:57:51.434Z,0.60
2018-12-02T16:00:24.968Z,0.40
2018-12-02T16:02:53.153Z,0.57
2018-12-02T16:05:21.381Z,0.80
2018-12-02T16:07:49.533Z,0.60
2018-12-02T16:10:17.872Z,0.60
2018-12-02T16:12:50.213Z,0.40
2018-12-02T16:15:22.689Z,0.67
2018-12-02T16:17:51.538Z,0.97
2018-12-02T16:20:27.424Z,1.00
2018-12-02T16:22:56.273Z,0.50
2018-12-02T16:25:24.600Z,0.70
2018-12-02T16:27:52.803Z,0.80
2018-12-02T16:30:21.224Z,0.70
2018-12-02T16:32:54.167Z,0.40
2018-12-02T16:35:23.299Z,0.50
2018-12-02T16:37:52.620Z,0.50
2018-12-02T16:40:23.208Z,0.40
2018-12-02T16:42:52.601Z,0.40
2018-12-02T16:45:20.744Z,0.60
2018-12-02T16:47:51.287Z,0.57
2018-12-02T16:50:33.672Z,0.70
2018-12-02T16:53:07.534Z,0.40
2018-12-02T16:55:38.915Z,0.60
2018-12-02T16:58:15.420Z,0.63
2018-12-02T17:00:55.152Z,0.60
2018-12-02T17:03:23.305Z,0.60
2018-12-02T17:05:51.509Z,2.60
2018-12-02T17:08:19.721Z,1.00
2018-12-02T17:10:50.647Z,0.70
2018-12-02T17:13:16.156Z,0.70
2018-12-02T17:15:44.333Z,0.60
2018-12-02T17:18:12.578Z,0.60
2018-12-02T17:20:40.733Z,1.13
2018-12-02T17:23:08.888Z,3.30
2018-12-02T17:25:37.079Z,1.00
2018-12-02T17:28:05.548Z,1.03
2018-12-02T17:30:38.612Z,2.20
2018-12-02T17:33:07.527Z,2.70
2018-12-02T17:35:35.725Z,3.93
2018-12-02T17:38:03.880Z,0.70
2018-12-02T17:40:32.028Z,0.80
2018-12-02T17:43:00.169Z,0.70
2018-12-02T17:45:28.317Z,3.13
2018-12-02T17:47:56.593Z,0.77
2018-12-02T17:50:24.741Z,1.20
2018-12-02T17:52:52.948Z,0.70
2018-12-02T17:55:21.145Z,0.60
2018-12-02T17:57:49.301Z,0.60
2018-12-02T18:00:20.481Z,0.50
2018-12-02T18:02:48.733Z,7.80
2018-12-02T18:05:19.124Z,1.73
2018-12-02T18:07:47.509Z,1.00
2018-12-02T18:10:15.840Z,1.37
2018-12-02T18:12:44.164Z,1.60
2018-12-02T18:15:15.421Z,1.40
2018-12-02T18:17:43.769Z,1.17
2018-12-02T18:20:15.975Z,1.87
2018-12-02T18:22:44.445Z,2.20
2018-12-02T18:25:15.880Z,1.63
2018-12-02T18:27:44.822Z,2.10
2018-12-02T18:30:14.501Z,0.90
2018-12-02T18:32:42.772Z,0.70
2018-12-02T18:35:23.157Z,0.80
2018-12-02T18:37:52.029Z,0.60
2018-12-02T18:40:20.252Z,1.27
2018-12-02T18:42:48.477Z,0.97
2018-12-02T18:45:16.714Z,0.70
2018-12-02T18:47:45.040Z,0.97
2018-12-02T18:50:13.233Z,0.70
2018-12-02T18:52:41.393Z,1.60
2018-12-02T18:55:11.296Z,2.67
2018-12-02T18:57:39.965Z,4.23
2018-12-02T19:00:18.905Z,3.93
2018-12-02T19:02:47.473Z,4.10
2018-12-02T19:05:15.712Z,2.53
2018-12-02T19:07:43.860Z,2.60
2018-12-02T19:10:15.728Z,1.80
2018-12-02T19:12:43.902Z,1.60
2018-12-02T19:15:13.567Z,1.00
2018-12-02T19:17:41.961Z,1.20
2018-12-02T19:20:15.176Z,3.53
2018-12-02T19:22:43.424Z,1.00
2018-12-02T19:25:13.332Z,1.10
2018-12-02T19:27:41.557Z,1.20
2018-12-02T19:30:13.361Z,1.10
2018-12-02T19:32:41.686Z,0.70
2018-12-02T19:35:14.456Z,0.80
2018-12-02T19:37:43.241Z,0.93
2018-12-02T19:40:14.608Z,0.80
2018-12-02T19:42:42.896Z,1.10
2018-12-02T19:45:15.290Z,1.90
2018-12-02T19:47:43.540Z,0.80
2018-12-02T19:50:17.864Z,0.93
2018-12-02T19:52:46.439Z,0.60
2018-12-02T19:55:14.642Z,0.70
2018-12-02T19:57:45.012Z,0.40
2018-12-02T20:00:19.769Z,0.60
2018-12-02T20:02:48.053Z,0.60
2018-12-02T20:05:16.188Z,0.50
2018-12-02T20:07:45.517Z,0.30
2018-12-02T20:10:16.049Z,0.50
2018-12-02T20:12:44.239Z,0.40
2018-12-02T20:15:13.516Z,0.60
2018-12-02T20:17:41.725Z,0.97
2018-12-02T20:20:20.141Z,0.50
2018-12-02T20:22:48.304Z,0.60
2018-12-02T20:25:17.053Z,1.77
2018-12-02T20:27:45.781Z,1.30
2018-12-02T20:30:16.963Z,1.00
2018-12-02T20:32:45.186Z,0.40
2018-12-02T20:35:13.321Z,0.67
2018-12-02T20:37:41.853Z,0.60
2018-12-02T20:40:14.321Z,0.47
2018-12-02T20:42:42.619Z,0.57
2018-12-02T20:45:11.965Z,1.10
2018-12-02T20:47:40.110Z,0.70
2018-12-02T20:50:09.812Z,0.77
2018-12-02T20:52:37.957Z,0.40
2018-12-02T20:55:15.013Z,0.70
2018-12-02T20:57:43.412Z,0.67
2018-12-02T21:00:13.057Z,0.90
2018-12-02T21:02:41.607Z,0.40
2018-12-02T21:05:47.324Z,0.53
2018-12-02T21:08:15.468Z,0.50
2018-12-02T21:10:43.609Z,0.50
2018-12-02T21:13:11.853Z,0.60
2018-12-02T21:15:39.995Z,0.60
2018-12-02T21:18:08.163Z,0.40
2018-12-02T21:20:36.309Z,0.50
2018-12-02T21:23:04.508Z,0.50
2018-12-02T21:25:32.669Z,0.60
2018-12-02T21:28:00.808Z,0.40
2018-12-02T21:30:29.823Z,0.60
2018-12-02T21:32:58.030Z,0.40
2018-12-02T21:35:26.304Z,0.40
2018-12-02T21:37:55.887Z,0.40
2018-12-02T21:40:24.068Z,0.30
2018-12-02T21:42:52.370Z,0.23
2018-12-02T21:45:20.708Z,0.30
2018-12-02T21:47:51.413Z,0.40
2018-12-02T21:50:31.596Z,0.20
2018-12-02T21:53:01.025Z,0.23
2018-12-02T21:55:29.209Z,0.23
2018-12-02T21:57:57.382Z,0.20
2018-12-02T22:00:30.869Z,0.27
2018-12-02T22:02:59.052Z,0.20
2018-12-02T22:05:27.281Z,0.10
2018-12-02T22:07:55.417Z,0.20
2018-12-02T22:10:25.904Z,0.20
2018-12-02T22:12:54.208Z,0.17
2018-12-02T22:15:22.353Z,0.20
2018-12-02T22:17:50.557Z,0.20
2018-12-02T22:20:18.729Z,0.20
2018-12-02T22:22:46.912Z,0.20
2018-12-02T22:25:17.141Z,0.20
2018-12-02T22:27:46.421Z,0.20
2018-12-02T22:30:16.560Z,0.20
2018-12-02T22:32:44.732Z,0.10
2018-12-02T22:35:13.840Z,0.20
2018-12-02T22:37:42.394Z,0.20
2018-12-02T22:40:11.781Z,0.30
2018-12-02T22:42:39.988Z,0.10
2018-12-02T22:45:09.988Z,0.20
2018-12-02T22:47:38.150Z,0.10
2018-12-02T22:50:09.817Z,0.10
2018-12-02T22:52:37.968Z,0.10
2018-12-02T22:55:07.725Z,0.17
2018-12-02T22:57:36.173Z,0.20
2018-12-02T23:00:08.037Z,0.10
2018-12-02T23:02:41.492Z,0.20
2018-12-02T23:05:09.629Z,0.10
2018-12-02T23:07:37.912Z,0.10
2018-12-02T23:10:06.088Z,0.10
2018-12-02T23:12:34.262Z,0.10
2018-12-02T23:15:02.448Z,0.10
2018-12-02T23:17:30.599Z,0.20
2018-12-02T23:19:58.761Z,0.20
2018-12-02T23:22:26.937Z,0.27
2018-12-02T23:24:55.068Z,0.30
2018-12-02T23:27:23.213Z,0.20
2018-12-02T23:29:51.344Z,0.17
2018-12-02T23:32:19.537Z,0.33
2018-12-02T23:34:47.701Z,0.30
2018-12-02T23:37:20.525Z,0.30
2018-12-02T23:39:44.005Z,0.20
2018-12-02T23:42:12.256Z,0.30
2018-12-02T23:44:40.390Z,0.30
2018-12-02T23:47:08.541Z,0.30
2018-12-02T23:49:36.757Z,0.23
2018-12-02T23:52:05.169Z,0.33
2018-12-02T23:54:33.308Z,0.20
2018-12-02T23:57:01.454Z,0.20
2018-12-02T23:59:29.580Z,0.40
